Airfield :
LOGIN :

Register | Disclaimer

   EN    FR    IT 

 










Legend :    VFR   Marginal VFR   IFR   Intensive IFR   Very Intensive IFR
Visi :
Ceiling :
>= 8 km
>= 3000ft
5 to 8 km
1000 to 3000 ft
1500m to 5 km
500 to 1000 ft
800 to 1500m
200 to 500 ft
< 800m
< 200 ft
Symbols :   Thunderstorms  Fog  Heavy snow  Heavy precipitations  Wind > 20 kt
SIGMETs :     Misc.  Thunderstorms  Icing  Turbulence  Mountain Waves  Volcanic Ashes






- Airport Elevation : 24 ft
- IATA code : SGD


EKSB - Sonderborg

CURRENT METAR :
  • 231050Z AUTO 22008KT 180V270 9999NDV -RA OVC009/// 05/04 Q1001

EXPIRED METARs :
  • 231020Z AUTO 23005KT 180V260 7000NDV -RA OVC008/// 05/04 Q1002
  • 230950Z AUTO 23006G16KT 180V280 9000NDV -RA OVC008/// 05/04 Q1003
  • 230920Z AUTO 26009KT 230V290 9000NDV -RA OVC015/// 05/03 Q1003
  • 230850Z AUTO 25013G25KT 210V280 9999NDV -RA BKN017/// 05/03 Q1004
  • 230820Z AUTO 25013KT 210V290 9999NDV BKN021/// 06/03 Q1004

Expired Forecast.



MET'MAP, your aeronautical weather chart ! - Copyright ORBIFLY December 2007 - Disclaimer

ORBIFLY MET'MAP TEAM :

Programming & Development : Alexandra Zaïnal
Concept & original design : Baudouin d'Aumeries
Assistance for programming : Marc-Olivier Méhu
Technical & hardware support : Manuel Goepfert

Contact : metmap@orbifly.com




SOURCES & CREDITS :

   NOAA